Latest Weather Observations for Hervey Bay

IDQ60801

Issued at 8:02 am EST Tuesday 7 July 2015 (issued every 30 minutes, with the page automatically refreshed every 10 minutes)

About weather observations | Map of weather stations | Latest weather observations for QLD | Other Formats
Station Details ID: 040405 Name: HERVEY BAY AIRPORT Lat: -25.32 Lon: 152.88 Height: 12.98 m
Data from the previous 72 hours. | See also: Recent months at Hervey Bay
Date/Time
EST
Temp
°C
App
Temp
°C
Dew
Point
Rel
Hum
%
Delta-T
°C
Wind Press
QNH
hPa
Press
MSL
hPa
Rain
since 9 am
mm
Dir
 
Spd
km/h
Gust
km/h
Spd
kts
Gust
kts
07/08:00am 13.0 12.4 11.6 91 0.7 S 6 7 3 4 1018.4 1018.4 0.0
07/07:30am 11.1 10.1 10.3 95 0.4 SSW 6 6 3 3 1018.2 1018.2 0.0
07/07:00am 8.6 6.9 7.5 93 0.5 SSW 6 6 3 3 1017.8 1017.8 0.0
07/06:30am 8.1 6.1 7.2 94 0.4 SSW 7 9 4 5 1017.7 1017.7 0.0
07/06:10am 8.3 6.5 7.2 93 0.5 SSW 6 7 3 4 1017.6 1017.6 0.0
07/06:00am 8.4 6.6 7.3 93 0.5 SW 6 7 3 4 1017.4 1017.4 0.0
07/05:51am 8.8 7.2 7.9 94 0.4 SW 6 6 3 3 1017.3 1017.3 0.0
07/05:30am 10.2 8.8 9.7 97 0.3 SW 7 9 4 5 1017.1 1017.1 0.0
07/05:00am 8.5 6.3 7.9 96 0.3 SW 9 13 5 7 1016.7 1016.7 0.0
07/04:45am 7.9 6.4 7.0 94 0.4 SSW 4 6 2 3 1016.5 1016.5 0.0
07/04:30am 7.9 6.1 7.0 94 0.4 SSW 6 7 3 4 1016.5 1016.5 0.0
07/04:26am 8.0 6.2 7.1 94 0.4 SSW 6 7 3 4 1016.5 1016.5 0.0
07/04:00am 8.1 6.1 7.2 94 0.4 SSW 7 7 4 4 1016.5 1016.5 0.0
07/03:30am 8.1 6.1 7.2 94 0.4 SW 7 9 4 5 1016.5 1016.5 0.0
07/03:00am 8.0 6.2 7.1 94 0.4 WSW 6 7 3 4 1016.6 1016.6 0.0
07/02:30am 8.2 6.4 7.1 93 0.5 WSW 6 6 3 3 1016.9 1016.9 0.0
07/02:00am 8.2 7.5 7.1 93 0.5 CALM 0 0 0 0 1016.9 1016.9 0.0
07/01:30am 8.3 7.7 7.2 93 0.5 CALM 0 0 0 0 1017.0 1017.0 0.0
07/01:00am 8.5 7.9 7.4 93 0.5 CALM 0 0 0 0 1017.1 1017.1 0.0
07/12:30am 8.7 8.1 7.6 93 0.5 CALM 0 0 0 0 1017.3 1017.3 0.0
 
Date/Time
EST
Temp
°C
App
Temp
°C
Dew
Point
Rel
Hum
%
Delta-T
°C
Wind Press
QNH
hPa
Press
MSL
hPa
Rain
since 9 am
mm
Dir
 
Spd
km/h
Gust
km/h
Spd
kts
Gust
kts
06/11:30pm 8.7 8.1 7.6 93 0.5 CALM 0 0 0 0 1017.7 1017.7 0.0
06/11:00pm 9.2 8.8 8.1 93 0.5 CALM 0 0 0 0 1017.8 1017.8 0.0
06/10:30pm 9.3 8.9 8.2 93 0.5 CALM 0 0 0 0 1017.9 1017.9 0.0
06/10:00pm 9.6 9.2 8.2 91 0.7 CALM 0 0 0 0 1018.0 1018.0 0.0
06/09:30pm 9.9 9.6 8.7 92 0.6 CALM 0 0 0 0 1018.1 1018.1 0.0
06/09:00pm 10.1 9.8 8.7 91 0.7 CALM 0 0 0 0 1018.2 1018.2 0.0
06/08:30pm 10.4 10.2 9.0 91 0.7 CALM 0 0 0 0 1018.0 1018.0 0.0
06/08:00pm 10.6 9.7 9.2 91 0.7 NE 4 7 2 4 1018.0 1018.0 0.0
06/07:30pm 11.0 10.9 9.3 89 0.8 CALM 0 0 0 0 1017.9 1017.9 0.0
06/07:00pm 11.5 11.4 9.6 88 1.0 CALM 0 0 0 0 1017.7 1017.7 0.0
06/06:00pm 13.1 13.1 9.9 81 1.6 CALM 0 0 0 0 1017.0 1017.0 0.0
06/05:30pm 14.8 14.7 9.6 71 2.7 CALM 0 4 0 2 1016.7 1016.7 0.0
06/05:00pm 18.6 17.0 8.8 53 5.1 NNE 7 9 4 5 1016.6 1016.6 0.0
06/04:30pm 20.5 18.7 7.8 44 6.6 N 7 11 4 6 1016.5 1016.5 0.0
06/04:00pm 21.0 18.6 6.9 40 7.2 NNE 9 13 5 7 1016.5 1016.5 0.0
06/03:30pm 21.7 19.0 7.2 39 7.5 NNE 11 15 6 8 1016.6 1016.6 0.0
06/03:00pm 22.1 19.1 7.9 40 7.4 NNE 13 19 7 10 1016.7 1016.7 0.0
06/02:30pm 21.9 18.5 7.7 40 7.4 N 15 20 8 11 1016.7 1016.7 0.0
06/02:00pm 22.3 19.7 7.7 39 7.6 N 11 19 6 10 1017.0 1017.0 0.0
06/01:30pm 22.1 19.4 7.5 39 7.6 N 11 19 6 10 1017.2 1017.2 0.0
06/01:00pm 22.2 18.7 7.2 38 7.7 N 15 20 8 11 1017.5 1017.5 0.0
06/12:30pm 22.8 19.6 8.5 40 7.6 N 15 20 8 11 1018.1 1018.1 0.0
06/12:00pm 22.2 19.6 7.6 39 7.6 N 11 19 6 10 1018.6 1018.6 0.0
06/11:30am 22.6 21.0 11.7 50 6.1 NE 11 15 6 8 1019.0 1019.0 0.0
06/11:00am 21.6 20.3 9.8 47 6.4 N 7 13 4 7 1019.4 1019.4 0.0
06/10:30am 20.7 20.4 11.6 56 5.0 SSE 4 7 2 4 1019.7 1019.7 0.0
06/10:00am 19.1 18.9 13.5 70 3.2 SSW 7 11 4 6 1020.1 1020.1 0.0
06/09:30am 17.8 17.2 13.5 76 2.4 SW 9 11 5 6 1020.3 1020.3 0.0
06/09:00am 16.6 16.1 13.7 83 1.6 SSW 9 13 5 7 1020.4 1020.4 0.2
06/08:30am 15.2 14.9 13.2 88 1.1 SW 7 9 4 5 1020.2 1020.2 0.2
06/08:00am 13.9 13.6 12.8 93 0.6 S 6 9 3 5 1020.1 1020.1 0.2
06/07:30am 11.5 11.7 10.7 95 0.4 CALM 0 0 0 0 1019.8 1019.8 0.2
06/07:00am 9.0 8.6 8.1 94 0.4 CALM 0 0 0 0 1019.6 1019.6 0.2
06/06:30am 8.9 8.4 7.8 93 0.5 CALM 0 0 0 0 1019.6 1019.6 0.2
06/06:00am 10.2 9.7 9.4 95 0.4 SW 2 6 1 3 1019.6 1019.6 0.2
06/05:30am 10.8 8.8 10.3 97 0.3 SSW 11 19 6 10 1019.4 1019.4 0.2
06/05:00am 9.3 9.0 8.5 95 0.4 CALM 0 6 0 3 1019.3 1019.3 0.2
06/04:30am 9.1 7.6 8.3 95 0.4 SW 6 7 3 4 1019.4 1019.4 0.2
06/04:00am 8.8 8.3 8.0 95 0.4 CALM 0 0 0 0 1019.4 1019.4 0.2
06/03:30am 8.7 8.2 7.8 94 0.4 CALM 0 0 0 0 1019.5 1019.5 0.2
06/03:00am 9.1 8.7 8.2 94 0.4 CALM 0 0 0 0 1019.6 1019.6 0.2
06/02:30am 9.1 8.6 8.0 93 0.5 CALM 0 0 0 0 1019.7 1019.7 0.2
06/02:00am 9.5 9.2 8.6 94 0.4 CALM 0 0 0 0 1019.9 1019.9 0.2
06/01:30am 9.6 9.3 8.5 93 0.5 CALM 0 0 0 0 1020.2 1020.2 0.2
06/01:00am 9.7 9.4 8.6 93 0.5 CALM 0 0 0 0 1020.7 1020.7 0.2
06/12:30am 10.0 9.8 8.9 93 0.5 CALM 0 0 0 0 1020.8 1020.8 0.2
06/12:00am 10.2 10.0 9.1 93 0.5 CALM 0 0 0 0 1020.9 1020.9 0.2
 
Date/Time
EST
Temp
°C
App
Temp
°C
Dew
Point
Rel
Hum
%
Delta-T
°C
Wind Press
QNH
hPa
Press
MSL
hPa
Rain
since 9 am
mm
Dir
 
Spd
km/h
Gust
km/h
Spd
kts
Gust
kts
05/11:30pm 10.3 10.1 9.2 93 0.5 CALM 0 0 0 0 1021.1 1021.1 0.2
05/11:00pm 10.6 10.5 9.4 92 0.6 CALM 0 0 0 0 1020.9 1020.9 0.2
05/10:30pm 10.9 10.9 9.7 92 0.6 CALM 0 0 0 0 1021.1 1021.1 0.2
05/10:00pm 11.3 11.4 10.0 92 0.7 CALM 0 0 0 0 1021.2 1021.2 0.2
05/09:30pm 11.8 12.0 10.5 92 0.7 CALM 0 0 0 0 1021.1 1021.1 0.2
05/09:00pm 12.0 12.2 10.7 92 0.7 CALM 0 0 0 0 1021.2 1021.2 0.2
05/08:30pm 12.4 12.8 11.1 92 0.7 CALM 0 0 0 0 1021.2 1021.2 0.2
05/08:00pm 12.4 12.7 11.0 91 0.7 CALM 0 0 0 0 1021.1 1021.1 0.2
05/07:30pm 12.6 12.9 11.0 90 0.8 CALM 0 0 0 0 1021.0 1021.0 0.2
05/07:00pm 13.2 13.7 11.6 90 0.8 CALM 0 0 0 0 1020.7 1020.7 0.2
05/06:30pm 13.8 14.4 11.8 88 1.1 CALM 0 0 0 0 1020.4 1020.4 0.2
05/06:00pm 14.4 14.9 11.7 84 1.4 CALM 0 0 0 0 1020.2 1020.2 0.2
05/05:30pm 16.5 17.3 12.5 77 2.2 CALM 0 0 0 0 1019.8 1019.8 0.2
05/05:00pm 19.1 18.6 12.6 66 3.6 ENE 7 9 4 5 1019.8 1019.8 0.2
05/04:30pm 20.1 19.5 12.3 61 4.4 E 7 11 4 6 1020.0 1020.0 0.2
05/04:00pm 20.0 18.8 11.5 58 4.7 E 9 13 5 7 1020.0 1020.0 0.2
05/03:30pm 20.4 18.8 11.6 57 4.9 E 11 13 6 7 1019.9 1019.9 0.2
05/03:00pm 20.5 19.4 12.0 58 4.7 ESE 9 11 5 6 1019.9 1019.9 0.2
05/02:30pm 20.9 20.2 12.1 57 4.9 ESE 7 11 4 6 1020.1 1020.1 0.2
05/02:00pm 21.1 20.0 12.0 56 5.1 S 9 15 5 8 1020.3 1020.3 0.2
05/01:30pm 21.4 19.7 12.3 56 5.1 SSW 13 17 7 9 1020.5 1020.5 0.2
05/01:00pm 20.7 19.5 12.7 60 4.5 SSE 11 15 6 8 1020.7 1020.7 0.2
05/12:30pm 21.0 19.1 11.9 56 5.1 SSW 13 19 7 10 1020.9 1020.9 0.2
05/12:00pm 21.4 19.3 12.5 57 5.0 SSW 15 20 8 11 1021.4 1021.4 0.2
05/11:30am 20.9 19.2 12.3 58 4.8 S 13 20 7 11 1022.0 1022.0 0.0
05/11:00am 20.1 18.0 12.3 61 4.4 SSW 15 20 8 11 1022.4 1022.4 0.0
05/10:30am 19.6 17.9 13.5 68 3.5 SSW 15 20 8 11 1022.7 1022.7 0.0
05/10:00am 19.4 18.2 14.0 71 3.1 S 13 17 7 9 1022.8 1022.8 0.0
05/09:30am 18.6 17.7 13.7 73 2.8 SSW 11 17 6 9 1022.8 1022.8 0.0
05/09:00am 17.5 16.7 14.0 80 2.0 SSW 11 13 6 7 1022.6 1022.6 0.6
05/08:30am 16.8 17.0 14.1 84 1.5 S 6 9 3 5 1022.4 1022.4 0.6
05/08:00am 16.3 16.1 13.6 84 1.5 SSW 7 11 4 6 1022.0 1022.0 0.6
05/07:30am 15.7 15.6 13.9 89 1.0 SSW 7 9 4 5 1021.7 1021.7 0.6
05/07:00am 15.3 16.5 13.8 91 0.8 CALM 0 0 0 0 1021.4 1021.4 0.6
05/06:30am 15.2 15.2 13.6 90 0.9 SSW 6 6 3 3 1021.1 1021.1 0.6
05/06:00am 15.3 14.8 13.8 91 0.8 SW 9 11 5 6 1020.8 1020.8 0.6
05/05:30am 15.4 14.9 13.9 91 0.8 SSW 9 13 5 7 1020.4 1020.4 0.6
05/05:00am 15.3 15.2 13.8 91 0.8 SSW 7 11 4 6 1020.2 1020.2 0.6
05/04:30am 15.3 15.2 13.8 91 0.8 SSW 7 9 4 5 1020.1 1020.1 0.6
05/04:00am 15.2 15.0 13.7 91 0.8 SSW 7 9 4 5 1020.2 1020.2 0.6
05/03:30am 15.0 14.8 13.7 92 0.7 SSE 7 9 4 5 1020.4 1020.4 0.6
05/03:00am 14.9 15.6 13.4 91 0.8 WSW 2 6 1 3 1020.4 1020.4 0.6
05/02:30am 15.3 16.1 13.7 90 0.9 WSW 2 7 1 4 1020.6 1020.6 0.6
05/02:00am 15.5 15.4 13.9 90 0.9 SW 7 9 4 5 1020.9 1020.9 0.6
05/01:30am 15.8 15.0 14.0 89 1.0 SW 11 17 6 9 1021.1 1021.1 0.6
05/01:00am 15.9 15.2 14.3 90 0.9 SSW 11 15 6 8 1021.5 1021.5 0.6
05/12:30am 15.5 15.1 14.0 91 0.8 S 9 13 5 7 1021.7 1021.7 0.6
05/12:00am 15.5 15.4 14.0 91 0.8 SSW 7 11 4 6 1021.8 1021.8 0.6
 
Date/Time
EST
Temp
°C
App
Temp
°C
Dew
Point
Rel
Hum
%
Delta-T
°C
Wind Press
QNH
hPa
Press
MSL
hPa
Rain
since 9 am
mm
Dir
 
Spd
km/h
Gust
km/h
Spd
kts
Gust
kts
04/11:30pm 15.7 15.7 14.2 91 0.9 NW 7 11 4 6 1022.2 1022.2 0.6
04/11:00pm 15.9 16.3 14.8 93 0.6 N 6 7 3 4 1022.4 1022.4 0.6
04/10:30pm 15.7 15.4 14.4 92 0.7 NNW 9 9 5 5 1022.4 1022.4 0.4
04/10:00pm 15.3 15.4 14.0 92 0.7 W 6 7 3 4 1022.4 1022.4 0.0
04/09:30pm 15.1 16.2 13.6 91 0.8 CALM 0 0 0 0 1022.3 1022.3 0.0
04/09:00pm 15.1 15.2 13.8 92 0.7 SE 6 9 3 5 1022.3 1022.3 0.0
04/08:30pm 14.4 14.0 13.1 92 0.7 SSW 7 7 4 4 1022.1 1022.1 0.0
04/08:00pm 13.8 13.4 12.9 94 0.5 SSW 7 9 4 5 1021.9 1021.9 0.0
04/07:30pm 12.9 13.0 11.5 91 0.7 SW 2 7 1 4 1021.9 1021.9 0.0
04/07:00pm 13.1 12.4 11.5 90 0.8 WSW 6 7 3 4 1021.6 1021.6 0.0
04/06:30pm 13.7 13.0 11.9 89 1.0 SSW 7 7 4 4 1021.2 1021.2 0.0
04/06:00pm 14.5 13.7 11.6 83 1.5 SSE 7 9 4 5 1020.8 1020.8 0.0
04/05:30pm 16.6 16.3 12.8 78 2.1 SSE 6 7 3 4 1020.4 1020.4 0.0
04/05:00pm 18.0 17.3 13.1 73 2.7 SE 9 15 5 8 1020.1 1020.1 0.0
04/04:30pm 18.9 17.5 13.3 70 3.2 SE 13 20 7 11 1019.8 1019.8 0.0
04/04:00pm 19.5 17.3 13.2 67 3.6 SE 17 22 9 12 1019.5 1019.5 0.0
04/03:30pm 20.3 18.2 13.5 65 3.9 SE 17 24 9 13 1019.5 1019.5 0.0
04/03:00pm 20.6 18.7 13.1 62 4.3 SE 15 24 8 13 1019.4 1019.4 0.0
04/02:30pm 20.9 18.9 12.8 60 4.6 SE 15 28 8 15 1019.6 1019.6 0.0
04/02:00pm 21.1 18.3 12.5 58 4.8 SE 19 26 10 14 1019.7 1019.7 0.0
04/01:30pm 21.0 18.1 12.4 58 4.8 SE 19 28 10 15 1019.8 1019.8 0.0
04/01:00pm 20.9 18.9 12.8 60 4.6 SE 15 22 8 12 1020.0 1020.0 0.0
04/12:30pm 20.7 18.0 12.9 61 4.4 SSE 19 28 10 15 1020.4 1020.4 0.0
04/12:00pm 21.1 19.1 13.8 63 4.2 S 17 24 9 13 1020.9 1020.9 0.0
04/11:30am 20.1 18.1 12.6 62 4.2 S 15 24 8 13 1021.4 1021.4 0.0
04/11:00am 19.3 16.8 12.3 64 3.9 S 17 24 9 13 1021.9 1021.9 0.0
04/10:30am 19.2 17.4 12.2 64 3.9 S 13 20 7 11 1022.3 1022.3 0.0
04/10:00am 18.5 16.3 12.0 66 3.6 S 15 22 8 12 1022.6 1022.6 0.0
04/09:30am 17.3 14.3 10.7 65 3.5 S 17 28 9 15 1022.9 1022.9 0.0
04/09:00am 16.5 13.7 10.1 66 3.4 S 15 22 8 12 1022.8 1022.8 0.2
04/08:30am 16.1 12.9 10.0 67 3.2 SSW 17 28 9 15 1022.6 1022.6 0.2

Other Formats:

Comma delimited format used in spreadsheet applications
http://www.bom.gov.au/fwo/IDQ60801/IDQ60801.95565.axf

JavaScript Object Notation format (JSON) in row-major order
http://www.bom.gov.au/fwo/IDQ60801/IDQ60801.95565.json